RUM4781 SBFL-SBPA
Flight info
| Callsign | RUM4781 |
|---|---|
| Flight time | 0h 45m |
| Altitude | 30000 |
| Route | MIGAK1A UGREV UN857 TIMVI UBREG1B |
| Aircraft | A319/M-SDE3FGHIRWY/LB1 |
Departure
| Time | 2026-04-30 11:53 |
|---|---|
| Airport | Hercílio Luz International Airport (SBFL) |
Arrival
| Time | 2026-04-30 12:38 |
|---|---|
| Airport | Porto Alegre-Salgado Filho International Airport (SBPA) |
| Time | Latitude | Longitude | Altitude | Speed | Heading |
|---|---|---|---|---|---|
| 2026-04-30 11:28 | -27.67285 | -48.54543 | 29 ft | 0 kts | 212° |
| 2026-04-30 11:45 | -27.67281 | -48.54540 | 29 ft | 4 kts | 212° |
| 2026-04-30 11:46 | -27.67260 | -48.54522 | 29 ft | 4 kts | 235° |
| 2026-04-30 11:46 | -27.67254 | -48.54500 | 29 ft | 3 kts | 298° |
| 2026-04-30 11:46 | -27.67255 | -48.54496 | 29 ft | 0 kts | 301° |
| 2026-04-30 11:49 | -27.67242 | -48.54520 | 29 ft | 8 kts | 302° |
| 2026-04-30 11:49 | -27.67209 | -48.54580 | 29 ft | 10 kts | 304° |
| 2026-04-30 11:49 | -27.67143 | -48.54620 | 29 ft | 12 kts | 360° |
| 2026-04-30 11:49 | -27.67057 | -48.54595 | 29 ft | 10 kts | 359° |
| 2026-04-30 11:50 | -27.67011 | -48.54662 | 28 ft | 15 kts | 297° |
| 2026-04-30 11:50 | -27.66948 | -48.54783 | 27 ft | 19 kts | 301° |
| 2026-04-30 11:50 | -27.66880 | -48.54908 | 27 ft | 19 kts | 300° |
| 2026-04-30 11:50 | -27.66807 | -48.55042 | 27 ft | 20 kts | 301° |
| 2026-04-30 11:51 | -27.66700 | -48.55126 | 28 ft | 12 kts | 346° |
| 2026-04-30 11:51 | -27.66659 | -48.55137 | 28 ft | 6 kts | 348° |
| 2026-04-30 11:51 | -27.66616 | -48.55133 | 28 ft | 7 kts | 20° |
| 2026-04-30 11:51 | -27.66595 | -48.55078 | 27 ft | 9 kts | 102° |
| 2026-04-30 11:52 | -27.66603 | -48.55062 | 26 ft | 0 kts | 118° |
| 2026-04-30 11:52 | -27.66728 | -48.54829 | 26 ft | 77 kts | 121° |
| 2026-04-30 11:52 | -27.67136 | -48.54072 | 28 ft | 146 kts | 121° |
| 2026-04-30 11:52 | -27.67688 | -48.52996 | 520 ft | 157 kts | 120° |
| 2026-04-30 11:53 | -27.68257 | -48.51882 | 1004 ft | 178 kts | 124° |
| 2026-04-30 11:53 | -27.68928 | -48.50621 | 1498 ft | 196 kts | 122° |
| 2026-04-30 11:53 | -27.69695 | -48.49245 | 1956 ft | 218 kts | 125° |
| 2026-04-30 11:53 | -27.70619 | -48.47725 | 2360 ft | 247 kts | 136° |
| 2026-04-30 11:54 | -27.72133 | -48.46796 | 3169 ft | 256 kts | 175° |
| 2026-04-30 11:54 | -27.73886 | -48.47139 | 4043 ft | 264 kts | 205° |
| 2026-04-30 11:54 | -27.75478 | -48.48219 | 4958 ft | 273 kts | 218° |
| 2026-04-30 11:54 | -27.77015 | -48.49470 | 6060 ft | 272 kts | 216° |
| 2026-04-30 11:55 | -27.78560 | -48.50728 | 7103 ft | 275 kts | 216° |
| 2026-04-30 11:55 | -27.80224 | -48.51839 | 8040 ft | 281 kts | 207° |
| 2026-04-30 11:55 | -27.82006 | -48.52726 | 8931 ft | 286 kts | 202° |
| 2026-04-30 11:55 | -27.83879 | -48.53540 | 9804 ft | 290 kts | 201° |
| 2026-04-30 11:56 | -27.85796 | -48.54344 | 10480 ft | 303 kts | 202° |
| 2026-04-30 11:56 | -27.87742 | -48.55445 | 10865 ft | 321 kts | 214° |
| 2026-04-30 11:56 | -27.89471 | -48.57079 | 11566 ft | 326 kts | 227° |
| 2026-04-30 11:56 | -27.91046 | -48.58951 | 12365 ft | 330 kts | 228° |
| 2026-04-30 11:57 | -27.92624 | -48.60838 | 13183 ft | 331 kts | 228° |
| 2026-04-30 11:57 | -27.94199 | -48.62722 | 13860 ft | 335 kts | 228° |
| 2026-04-30 11:57 | -27.95804 | -48.64654 | 14617 ft | 337 kts | 228° |
| 2026-04-30 11:57 | -27.97399 | -48.66578 | 15348 ft | 341 kts | 228° |
| 2026-04-30 11:58 | -27.99026 | -48.68542 | 16072 ft | 344 kts | 228° |
| 2026-04-30 11:58 | -28.00674 | -48.70528 | 16771 ft | 347 kts | 228° |
| 2026-04-30 11:58 | -28.02332 | -48.72521 | 17492 ft | 348 kts | 228° |
| 2026-04-30 11:58 | -28.03999 | -48.74524 | 18206 ft | 350 kts | 228° |
| 2026-04-30 11:59 | -28.05679 | -48.76543 | 18853 ft | 353 kts | 228° |
| 2026-04-30 11:59 | -28.07372 | -48.78579 | 19498 ft | 356 kts | 228° |
| 2026-04-30 11:59 | -28.09079 | -48.80633 | 20110 ft | 360 kts | 228° |
| 2026-04-30 11:59 | -28.10783 | -48.82687 | 20700 ft | 363 kts | 228° |
| 2026-04-30 12:00 | -28.12527 | -48.84787 | 21297 ft | 367 kts | 228° |
| 2026-04-30 12:00 | -28.14278 | -48.86895 | 21840 ft | 370 kts | 228° |
| 2026-04-30 12:00 | -28.16046 | -48.89031 | 22423 ft | 372 kts | 228° |
| 2026-04-30 12:00 | -28.17825 | -48.91187 | 22969 ft | 376 kts | 228° |
| 2026-04-30 12:01 | -28.19621 | -48.93355 | 23502 ft | 379 kts | 228° |
| 2026-04-30 12:01 | -28.21440 | -48.95549 | 24025 ft | 383 kts | 228° |
| 2026-04-30 12:01 | -28.23264 | -48.97762 | 24518 ft | 386 kts | 229° |
| 2026-04-30 12:01 | -28.25078 | -49.00013 | 25000 ft | 388 kts | 229° |
| 2026-04-30 12:02 | -28.26891 | -49.02300 | 25489 ft | 391 kts | 230° |
| 2026-04-30 12:02 | -28.28710 | -49.04606 | 25929 ft | 393 kts | 230° |
| 2026-04-30 12:02 | -28.30532 | -49.06894 | 26366 ft | 396 kts | 230° |
| 2026-04-30 12:02 | -28.32398 | -49.09215 | 26817 ft | 399 kts | 229° |
| 2026-04-30 12:03 | -28.34278 | -49.11542 | 27251 ft | 401 kts | 230° |
| 2026-04-30 12:03 | -28.38078 | -49.16247 | 28096 ft | 406 kts | 229° |
| 2026-04-30 12:03 | -28.39992 | -49.18619 | 28515 ft | 408 kts | 230° |
| 2026-04-30 12:04 | -28.41917 | -49.21010 | 28920 ft | 411 kts | 230° |
| 2026-04-30 12:04 | -28.43853 | -49.23418 | 29308 ft | 413 kts | 230° |
| 2026-04-30 12:04 | -28.45791 | -49.25838 | 29702 ft | 415 kts | 230° |
| 2026-04-30 12:04 | -28.47081 | -49.27451 | 29945 ft | 417 kts | 230° |
| 2026-04-30 12:05 | -28.49038 | -49.29894 | 30074 ft | 415 kts | 230° |
| 2026-04-30 12:05 | -28.50947 | -49.32268 | 30097 ft | 398 kts | 230° |
| 2026-04-30 12:05 | -28.53363 | -49.35275 | 30099 ft | 382 kts | 230° |
| 2026-04-30 12:06 | -28.56314 | -49.38963 | 30098 ft | 377 kts | 230° |
| 2026-04-30 12:06 | -28.59839 | -49.43376 | 30103 ft | 376 kts | 230° |
| 2026-04-30 12:07 | -28.63336 | -49.47759 | 30101 ft | 376 kts | 230° |
| 2026-04-30 12:07 | -28.66857 | -49.52168 | 30099 ft | 376 kts | 230° |
| 2026-04-30 12:08 | -28.70376 | -49.56579 | 30098 ft | 376 kts | 230° |
| 2026-04-30 12:08 | -28.73888 | -49.60986 | 30096 ft | 375 kts | 230° |
| 2026-04-30 12:09 | -28.77439 | -49.65430 | 30110 ft | 377 kts | 230° |
| 2026-04-30 12:09 | -28.80947 | -49.69854 | 30111 ft | 375 kts | 230° |
| 2026-04-30 12:10 | -28.84442 | -49.74276 | 30130 ft | 378 kts | 231° |
| 2026-04-30 12:10 | -28.87958 | -49.78706 | 30127 ft | 375 kts | 230° |
| 2026-04-30 12:11 | -28.91706 | -49.82902 | 30131 ft | 378 kts | 221° |
| 2026-04-30 12:11 | -28.95771 | -49.86676 | 30115 ft | 379 kts | 222° |
| 2026-04-30 12:12 | -28.99871 | -49.90510 | 30115 ft | 379 kts | 222° |
| 2026-04-30 12:12 | -29.03942 | -49.94302 | 30115 ft | 381 kts | 221° |
| 2026-04-30 12:13 | -29.08077 | -49.98140 | 30134 ft | 382 kts | 222° |
| 2026-04-30 12:13 | -29.12167 | -50.01974 | 30146 ft | 381 kts | 222° |
| 2026-04-30 12:14 | -29.16269 | -50.05820 | 30148 ft | 380 kts | 222° |
| 2026-04-30 12:14 | -29.20361 | -50.09645 | 30145 ft | 378 kts | 222° |
| 2026-04-30 12:15 | -29.24442 | -50.13466 | 30139 ft | 378 kts | 222° |
| 2026-04-30 12:15 | -29.28479 | -50.17259 | 30138 ft | 377 kts | 222° |
| 2026-04-30 12:16 | -29.32539 | -50.21073 | 30136 ft | 377 kts | 222° |
| 2026-04-30 12:16 | -29.36599 | -50.24888 | 30131 ft | 376 kts | 222° |
| 2026-04-30 12:17 | -29.42633 | -50.30556 | 29416 ft | 372 kts | 222° |
| 2026-04-30 12:17 | -29.44629 | -50.32437 | 28982 ft | 370 kts | 221° |
| 2026-04-30 12:17 | -29.46607 | -50.34305 | 28552 ft | 367 kts | 222° |
| 2026-04-30 12:18 | -29.48577 | -50.36167 | 28129 ft | 365 kts | 221° |
| 2026-04-30 12:18 | -29.50538 | -50.38021 | 27700 ft | 363 kts | 221° |
| 2026-04-30 12:18 | -29.52482 | -50.39856 | 27276 ft | 360 kts | 221° |
| 2026-04-30 12:18 | -29.54389 | -50.41657 | 26848 ft | 358 kts | 221° |
| 2026-04-30 12:19 | -29.56308 | -50.43469 | 26403 ft | 355 kts | 221° |
| 2026-04-30 12:19 | -29.58222 | -50.45277 | 25968 ft | 353 kts | 221° |
| 2026-04-30 12:19 | -29.60117 | -50.47069 | 25514 ft | 351 kts | 221° |
| 2026-04-30 12:19 | -29.61995 | -50.48849 | 25066 ft | 349 kts | 221° |
| 2026-04-30 12:20 | -29.63838 | -50.50596 | 24609 ft | 346 kts | 221° |
| 2026-04-30 12:20 | -29.65690 | -50.52350 | 24145 ft | 344 kts | 221° |
| 2026-04-30 12:20 | -29.67533 | -50.54096 | 23674 ft | 342 kts | 221° |
| 2026-04-30 12:20 | -29.69366 | -50.55835 | 23223 ft | 339 kts | 221° |
| 2026-04-30 12:21 | -29.71182 | -50.57562 | 22786 ft | 337 kts | 221° |
| 2026-04-30 12:21 | -29.72986 | -50.59279 | 22359 ft | 334 kts | 221° |
| 2026-04-30 12:21 | -29.74747 | -50.60952 | 21913 ft | 331 kts | 221° |
| 2026-04-30 12:21 | -29.76521 | -50.62634 | 21410 ft | 329 kts | 221° |
| 2026-04-30 12:22 | -29.78276 | -50.64298 | 20868 ft | 326 kts | 221° |
| 2026-04-30 12:22 | -29.80018 | -50.65955 | 20341 ft | 323 kts | 221° |
| 2026-04-30 12:22 | -29.81750 | -50.67602 | 19825 ft | 320 kts | 221° |
| 2026-04-30 12:22 | -29.83442 | -50.69216 | 19310 ft | 318 kts | 221° |
| 2026-04-30 12:23 | -29.85146 | -50.70840 | 18838 ft | 316 kts | 221° |
| 2026-04-30 12:23 | -29.86834 | -50.72452 | 18449 ft | 314 kts | 221° |
| 2026-04-30 12:23 | -29.88511 | -50.74051 | 18066 ft | 312 kts | 221° |
| 2026-04-30 12:23 | -29.90177 | -50.75638 | 17682 ft | 310 kts | 221° |
| 2026-04-30 12:24 | -29.91839 | -50.77217 | 17302 ft | 308 kts | 220° |
| 2026-04-30 12:24 | -29.93488 | -50.78737 | 16914 ft | 307 kts | 220° |
| 2026-04-30 12:24 | -29.95170 | -50.80254 | 16538 ft | 306 kts | 219° |
| 2026-04-30 12:24 | -29.96851 | -50.81760 | 16160 ft | 305 kts | 219° |
| 2026-04-30 12:25 | -29.98525 | -50.83260 | 15798 ft | 304 kts | 219° |
| 2026-04-30 12:25 | -30.00191 | -50.84756 | 15426 ft | 303 kts | 219° |
| 2026-04-30 12:25 | -30.01848 | -50.86250 | 15072 ft | 301 kts | 219° |
| 2026-04-30 12:25 | -30.03478 | -50.87725 | 14727 ft | 299 kts | 219° |
| 2026-04-30 12:26 | -30.05108 | -50.89203 | 14270 ft | 297 kts | 219° |
| 2026-04-30 12:26 | -30.06737 | -50.90688 | 13777 ft | 296 kts | 221° |
| 2026-04-30 12:26 | -30.08112 | -50.92433 | 13325 ft | 294 kts | 237° |
| 2026-04-30 12:26 | -30.08975 | -50.94524 | 12903 ft | 292 kts | 253° |
| 2026-04-30 12:27 | -30.09281 | -50.96837 | 12469 ft | 292 kts | 269° |
| 2026-04-30 12:27 | -30.09237 | -50.99184 | 12032 ft | 292 kts | 270° |
| 2026-04-30 12:27 | -30.09193 | -51.01527 | 11650 ft | 291 kts | 270° |
| 2026-04-30 12:27 | -30.09152 | -51.03865 | 11279 ft | 290 kts | 270° |
| 2026-04-30 12:28 | -30.09109 | -51.06191 | 10899 ft | 289 kts | 270° |
| 2026-04-30 12:28 | -30.09067 | -51.08510 | 10531 ft | 289 kts | 270° |
| 2026-04-30 12:28 | -30.09026 | -51.10798 | 10147 ft | 288 kts | 271° |
| 2026-04-30 12:28 | -30.08981 | -51.13101 | 9772 ft | 286 kts | 271° |
| 2026-04-30 12:29 | -30.08936 | -51.15394 | 9393 ft | 285 kts | 271° |
| 2026-04-30 12:29 | -30.08893 | -51.17676 | 8995 ft | 284 kts | 271° |
| 2026-04-30 12:29 | -30.08849 | -51.19959 | 8586 ft | 283 kts | 271° |
| 2026-04-30 12:29 | -30.08803 | -51.22230 | 8188 ft | 282 kts | 271° |
| 2026-04-30 12:30 | -30.08758 | -51.24455 | 7800 ft | 280 kts | 271° |
| 2026-04-30 12:30 | -30.08712 | -51.26699 | 7395 ft | 278 kts | 271° |
| 2026-04-30 12:30 | -30.08664 | -51.28930 | 6972 ft | 277 kts | 271° |
| 2026-04-30 12:30 | -30.08614 | -51.31143 | 6500 ft | 275 kts | 271° |
| 2026-04-30 12:31 | -30.08564 | -51.33342 | 6024 ft | 273 kts | 271° |
| 2026-04-30 12:31 | -30.08515 | -51.35529 | 5541 ft | 272 kts | 271° |
| 2026-04-30 12:31 | -30.08442 | -51.37706 | 5048 ft | 270 kts | 276° |
| 2026-04-30 12:31 | -30.07869 | -51.39751 | 4573 ft | 267 kts | 300° |
| 2026-04-30 12:32 | -30.06686 | -51.41331 | 4201 ft | 261 kts | 323° |
| 2026-04-30 12:32 | -30.05124 | -51.42258 | 4037 ft | 249 kts | 343° |
| 2026-04-30 12:32 | -30.03429 | -51.42470 | 3842 ft | 240 kts | 5° |
| 2026-04-30 12:32 | -30.01870 | -51.42003 | 3801 ft | 226 kts | 25° |
| 2026-04-30 12:33 | -30.00597 | -51.41033 | 3717 ft | 214 kts | 43° |
| 2026-04-30 12:33 | -29.99688 | -51.39719 | 3577 ft | 206 kts | 61° |
| 2026-04-30 12:33 | -29.99173 | -51.38208 | 3354 ft | 200 kts | 77° |
| 2026-04-30 12:33 | -29.99057 | -51.36645 | 3099 ft | 190 kts | 92° |
| 2026-04-30 12:34 | -29.99090 | -51.35194 | 2865 ft | 175 kts | 91° |
| 2026-04-30 12:34 | -29.99118 | -51.33829 | 2657 ft | 164 kts | 91° |
| 2026-04-30 12:34 | -29.99144 | -51.32584 | 2435 ft | 147 kts | 91° |
| 2026-04-30 12:34 | -29.99167 | -51.31443 | 2245 ft | 139 kts | 92° |
| 2026-04-30 12:35 | -29.99190 | -51.30342 | 2069 ft | 135 kts | 91° |
| 2026-04-30 12:35 | -29.99212 | -51.29275 | 1899 ft | 134 kts | 91° |
| 2026-04-30 12:35 | -29.99235 | -51.28202 | 1721 ft | 133 kts | 91° |
| 2026-04-30 12:35 | -29.99257 | -51.27134 | 1538 ft | 133 kts | 91° |
| 2026-04-30 12:36 | -29.99279 | -51.26070 | 1364 ft | 133 kts | 91° |
| 2026-04-30 12:36 | -29.99301 | -51.25009 | 1184 ft | 132 kts | 91° |
| 2026-04-30 12:36 | -29.99323 | -51.23949 | 1009 ft | 132 kts | 91° |
| 2026-04-30 12:36 | -29.99345 | -51.22891 | 835 ft | 132 kts | 91° |
| 2026-04-30 12:37 | -29.99366 | -51.21838 | 660 ft | 131 kts | 91° |
| 2026-04-30 12:37 | -29.99388 | -51.20791 | 485 ft | 130 kts | 91° |
| 2026-04-30 12:37 | -29.99409 | -51.19749 | 316 ft | 130 kts | 91° |
| 2026-04-30 12:37 | -29.99429 | -51.18722 | 144 ft | 129 kts | 91° |
| 2026-04-30 12:38 | -29.99450 | -51.17700 | 24 ft | 120 kts | 91° |
| 2026-04-30 12:38 | -29.99467 | -51.16895 | 18 ft | 76 kts | 91° |
| 2026-04-30 12:38 | -29.99478 | -51.16484 | 23 ft | 27 kts | 95° |
| 2026-04-30 12:38 | -29.99479 | -51.16326 | 24 ft | 22 kts | 89° |
| 2026-04-30 12:39 | -29.99446 | -51.16228 | 25 ft | 6 kts | 38° |
| 2026-04-30 12:39 | -29.99424 | -51.16223 | 25 ft | 11 kts | 358° |
| 2026-04-30 12:39 | -29.99381 | -51.16229 | 23 ft | 0 kts | 359° |
| 2026-04-30 12:39 | -29.99379 | -51.16229 | 23 ft | 2 kts | 359° |
| 2026-04-30 12:40 | -29.99322 | -51.16236 | 23 ft | 13 kts | 339° |
| 2026-04-30 12:40 | -29.99288 | -51.16323 | 22 ft | 13 kts | 275° |
| 2026-04-30 12:40 | -29.99286 | -51.16431 | 22 ft | 14 kts | 271° |
| 2026-04-30 12:40 | -29.99284 | -51.16550 | 22 ft | 16 kts | 271° |
| 2026-04-30 12:41 | -29.99281 | -51.16683 | 21 ft | 17 kts | 277° |
| 2026-04-30 12:41 | -29.99278 | -51.16825 | 21 ft | 18 kts | 270° |
| 2026-04-30 12:41 | -29.99274 | -51.16976 | 21 ft | 19 kts | 269° |
| 2026-04-30 12:41 | -29.99271 | -51.17133 | 21 ft | 19 kts | 270° |
| 2026-04-30 12:42 | -29.99269 | -51.17288 | 20 ft | 20 kts | 273° |
| 2026-04-30 12:42 | -29.99245 | -51.17381 | 22 ft | 8 kts | 327° |
| 2026-04-30 12:42 | -29.99195 | -51.17375 | 22 ft | 8 kts | 41° |
| 2026-04-30 12:42 | -29.99164 | -51.17350 | 20 ft | 2 kts | 17° |
| 2026-04-30 12:43 | -29.99146 | -51.17349 | 23 ft | 9 kts | 2° |
| 2026-04-30 12:43 | -29.99117 | -51.17348 | 20 ft | 0 kts | 1° |